createdAt,value
2023-03-29T00:02:58.092Z,70.20
2023-03-29T00:06:05.074Z,70.28
2023-03-29T00:09:08.505Z,70.02
2023-03-29T00:12:11.964Z,69.89
2023-03-29T00:15:14.914Z,70.32
2023-03-29T00:18:17.090Z,70.00
2023-03-29T00:21:19.803Z,70.17
2023-03-29T00:24:23.995Z,70.09
2023-03-29T00:27:27.111Z,70.11
2023-03-29T00:30:29.368Z,68.97
2023-03-29T00:33:34.484Z,69.79
2023-03-29T00:36:36.597Z,70.20
2023-03-29T00:39:42.797Z,69.88
2023-03-29T00:42:46.591Z,70.53
2023-03-29T00:45:50.851Z,70.65
2023-03-29T00:48:58.938Z,69.74
2023-03-29T00:52:01.296Z,70.50
2023-03-29T00:55:11.054Z,70.56
2023-03-29T00:58:20.465Z,71.32
2023-03-29T01:01:34.529Z,70.90
2023-03-29T01:04:53.883Z,71.02
2023-03-29T01:08:25.897Z,70.55
2023-03-29T01:11:34.908Z,71.54
2023-03-29T01:15:00.024Z,70.78
2023-03-29T01:18:02.386Z,71.12
2023-03-29T01:21:29.803Z,71.70
2023-03-29T01:25:12.098Z,71.17
2023-03-29T01:28:23.402Z,71.04
2023-03-29T01:31:34.862Z,70.78
2023-03-29T01:34:43.020Z,71.24
2023-03-29T01:38:17.373Z,70.59
2023-03-29T01:41:20.281Z,70.75
2023-03-29T01:44:49.688Z,71.50
2023-03-29T01:48:22.792Z,71.10
2023-03-29T01:51:42.344Z,71.21
2023-03-29T01:54:56.252Z,70.46
2023-03-29T01:58:00.951Z,70.78
2023-03-29T02:01:11.077Z,71.62
2023-03-29T02:04:20.396Z,71.49
2023-03-29T02:07:30.888Z,70.70
2023-03-29T02:10:35.374Z,70.53
2023-03-29T02:13:38.600Z,70.47
2023-03-29T02:16:41.076Z,70.56
2023-03-29T02:19:46.309Z,70.91
2023-03-29T02:23:09.601Z,70.77
2023-03-29T02:26:14.776Z,71.01
2023-03-29T02:29:17.312Z,70.56
2023-03-29T02:32:33.918Z,70.93
2023-03-29T02:35:45.461Z,70.52
2023-03-29T02:38:47.851Z,70.17
2023-03-29T02:41:51.488Z,70.62
2023-03-29T02:44:57.912Z,71.25
2023-03-29T02:48:08.693Z,70.07
2023-03-29T02:51:20.225Z,70.31
2023-03-29T02:54:26.738Z,69.89
2023-03-29T02:57:30.639Z,70.58
2023-03-29T03:00:34.310Z,69.85
2023-03-29T03:03:36.809Z,70.18
2023-03-29T03:06:40.879Z,69.77
2023-03-29T03:09:45.826Z,69.91
2023-03-29T03:12:48.244Z,70.06
2023-03-29T03:15:51.096Z,70.46
2023-03-29T03:18:55.690Z,68.93
2023-03-29T03:21:58.603Z,69.64
2023-03-29T03:25:00.744Z,69.51
2023-03-29T03:28:03.100Z,69.42
2023-03-29T03:31:05.968Z,69.55
2023-03-29T03:34:28.354Z,69.61
2023-03-29T03:37:39.490Z,68.66
2023-03-29T03:40:42.767Z,68.78
2023-03-29T03:43:48.927Z,69.07
2023-03-29T03:46:53.580Z,68.83
2023-03-29T03:49:56.716Z,68.94
2023-03-29T03:53:00.989Z,69.43
2023-03-29T03:56:14.106Z,69.07
2023-03-29T03:59:34.287Z,68.30
2023-03-29T04:02:43.746Z,69.03
2023-03-29T04:05:47.357Z,68.46
2023-03-29T04:08:50.802Z,68.19
2023-03-29T04:12:06.477Z,69.02
2023-03-29T04:15:11.670Z,69.33
2023-03-29T04:18:26.511Z,73.63
2023-03-29T04:21:34.125Z,73.23
2023-03-29T04:24:36.761Z,73.74
2023-03-29T04:28:03.676Z,75.14
2023-03-29T04:31:18.111Z,75.95
2023-03-29T04:34:27.279Z,74.14
2023-03-29T04:37:31.967Z,74.13
2023-03-29T04:40:38.505Z,74.31
2023-03-29T04:43:48.558Z,73.49
2023-03-29T04:47:00.997Z,73.80
2023-03-29T04:50:26.610Z,73.03
2023-03-29T04:53:28.976Z,73.18
2023-03-29T04:56:36.887Z,73.18
2023-03-29T05:00:15.386Z,72.88
2023-03-29T05:03:45.800Z,72.33
2023-03-29T05:06:58.865Z,72.82
2023-03-29T05:10:02.086Z,72.25
2023-03-29T05:13:04.478Z,72.31
2023-03-29T05:16:08.057Z,72.52
2023-03-29T05:19:11.687Z,72.52
2023-03-29T05:22:17.757Z,72.06
2023-03-29T05:25:21.159Z,72.86
2023-03-29T05:28:23.376Z,72.05
2023-03-29T05:31:26.773Z,71.86
2023-03-29T05:34:32.125Z,72.31
2023-03-29T05:37:37.640Z,72.16
2023-03-29T05:40:41.578Z,71.18
2023-03-29T05:44:06.561Z,68.84
2023-03-29T05:47:10.128Z,65.14
2023-03-29T05:50:12.616Z,61.86
2023-03-29T05:53:16.531Z,60.48
2023-03-29T05:56:19.224Z,61.40
2023-03-29T05:59:21.349Z,60.55
2023-03-29T06:02:24.950Z,58.99
2023-03-29T06:05:29.809Z,61.93
2023-03-29T06:08:35.338Z,59.27
2023-03-29T06:11:59.072Z,57.37
2023-03-29T06:15:25.880Z,58.53
2023-03-29T06:18:35.456Z,54.44
2023-03-29T06:21:39.111Z,55.80
2023-03-29T06:24:43.732Z,53.93
2023-03-29T06:27:56.613Z,55.38
2023-03-29T06:31:03.412Z,55.17
2023-03-29T06:34:12.174Z,56.10
2023-03-29T06:37:49.863Z,59.57
2023-03-29T06:41:15.086Z,57.90
2023-03-29T06:44:36.400Z,60.19
2023-03-29T06:47:46.437Z,60.42
2023-03-29T06:50:49.534Z,61.25
2023-03-29T06:53:52.618Z,65.28
2023-03-29T06:56:57.739Z,67.30
2023-03-29T07:00:01.647Z,62.49
2023-03-29T07:03:25.851Z,59.35
2023-03-29T07:06:30.456Z,60.12
2023-03-29T07:09:33.697Z,57.04
2023-03-29T07:13:03.488Z,56.69
2023-03-29T07:16:06.884Z,57.53
2023-03-29T07:19:27.503Z,57.08
2023-03-29T07:22:29.641Z,55.89
2023-03-29T07:25:36.515Z,54.24
2023-03-29T07:28:39.967Z,55.01
2023-03-29T07:31:52.375Z,51.87
2023-03-29T07:35:21.324Z,52.90
2023-03-29T07:38:23.950Z,52.47
2023-03-29T07:41:49.783Z,50.76
2023-03-29T07:44:52.104Z,50.89
2023-03-29T07:47:58.721Z,51.95
2023-03-29T07:51:08.348Z,50.36
2023-03-29T07:54:39.684Z,49.25
2023-03-29T07:58:05.866Z,50.34
2023-03-29T08:01:11.063Z,49.29
2023-03-29T08:04:36.946Z,49.42
2023-03-29T08:07:47.922Z,50.99
2023-03-29T08:11:09.225Z,49.01
2023-03-29T08:14:35.226Z,49.43
2023-03-29T08:17:47.774Z,51.60
2023-03-29T08:20:51.273Z,50.56
2023-03-29T08:23:53.531Z,50.46
2023-03-29T08:27:14.854Z,49.53
2023-03-29T08:30:17.493Z,49.09
2023-03-29T08:33:20.546Z,47.52
2023-03-29T08:36:29.914Z,48.25
2023-03-29T08:39:39.026Z,48.18
2023-03-29T08:43:09.372Z,46.27
2023-03-29T08:47:00.937Z,47.42
2023-03-29T08:50:15.085Z,47.73
2023-03-29T08:53:31.382Z,45.75
2023-03-29T08:56:47.647Z,46.22
2023-03-29T09:00:05.603Z,47.04
2023-03-29T09:03:23.241Z,46.30
2023-03-29T09:06:28.807Z,47.56
2023-03-29T09:09:42.052Z,48.64
2023-03-29T09:13:11.529Z,49.58
2023-03-29T09:16:20.173Z,50.52
2023-03-29T09:19:36.796Z,50.55
2023-03-29T09:23:16.471Z,49.84
2023-03-29T09:27:10.314Z,51.75
2023-03-29T09:30:26.387Z,50.86
2023-03-29T09:33:44.519Z,48.94
2023-03-29T09:37:10.051Z,50.19
2023-03-29T09:40:22.816Z,50.62
2023-03-29T09:43:53.467Z,50.37
2023-03-29T09:47:07.580Z,50.16
2023-03-29T09:50:34.333Z,50.40
2023-03-29T09:53:41.564Z,48.58
2023-03-29T09:56:56.120Z,49.54
2023-03-29T10:00:04.342Z,48.71
2023-03-29T10:03:21.694Z,48.54
2023-03-29T10:06:35.912Z,48.07
2023-03-29T10:09:38.438Z,47.70
2023-03-29T10:12:54.392Z,48.61
2023-03-29T10:16:02.428Z,46.53
2023-03-29T10:19:25.112Z,47.10
2023-03-29T10:22:37.860Z,46.33
2023-03-29T10:25:43.378Z,46.19
2023-03-29T10:28:55.299Z,47.93
2023-03-29T10:31:57.408Z,46.55
2023-03-29T10:35:23.513Z,46.75
2023-03-29T10:38:41.855Z,47.88
2023-03-29T10:41:44.905Z,47.89
2023-03-29T10:45:00.416Z,47.79
2023-03-29T10:48:07.003Z,46.30
2023-03-29T10:51:09.097Z,46.00
2023-03-29T10:54:15.963Z,45.02
2023-03-29T10:57:55.502Z,44.98
2023-03-29T11:00:58.505Z,45.63
2023-03-29T11:04:28.676Z,44.08
2023-03-29T11:07:38.887Z,44.55
2023-03-29T11:11:10.033Z,46.40
2023-03-29T11:14:50.235Z,45.21
2023-03-29T11:17:55.153Z,46.45
2023-03-29T11:21:34.462Z,46.06
2023-03-29T11:24:50.588Z,44.72
2023-03-29T11:28:50.832Z,44.28
2023-03-29T11:32:19.543Z,43.59
2023-03-29T11:35:53.681Z,43.52
2023-03-29T11:39:22.516Z,43.31
2023-03-29T11:42:32.310Z,41.74
2023-03-29T11:45:52.897Z,42.49
2023-03-29T11:49:06.922Z,42.37
2023-03-29T11:52:29.808Z,41.91
2023-03-29T11:59:58.008Z,43.03
2023-03-29T12:03:10.614Z,41.01
2023-03-29T12:06:41.116Z,41.13
2023-03-29T12:09:53.422Z,42.02
2023-03-29T12:13:01.916Z,40.86
2023-03-29T12:16:30.823Z,42.13
2023-03-29T12:19:43.572Z,42.84
2023-03-29T12:22:50.998Z,42.27
2023-03-29T12:26:12.100Z,41.92
2023-03-29T12:29:54.429Z,41.81
2023-03-29T12:33:42.641Z,42.06
2023-03-29T12:37:12.713Z,41.90
2023-03-29T12:40:42.763Z,42.38
2023-03-29T12:44:04.913Z,42.00
2023-03-29T12:47:32.510Z,41.23
2023-03-29T12:50:53.180Z,43.29
2023-03-29T12:54:03.465Z,41.65
2023-03-29T13:01:06.354Z,42.41
2023-03-29T13:04:20.957Z,41.25
2023-03-29T13:07:23.180Z,41.16
2023-03-29T13:10:42.800Z,41.18
2023-03-29T13:13:45.377Z,40.70
2023-03-29T13:16:50.197Z,41.32
2023-03-29T13:20:13.680Z,40.48
2023-03-29T13:23:34.641Z,41.75
2023-03-29T13:26:56.629Z,40.93
2023-03-29T13:30:38.024Z,42.79
2023-03-29T13:33:57.288Z,40.52
2023-03-29T13:37:19.197Z,41.79
2023-03-29T13:40:47.169Z,42.32
2023-03-29T13:43:54.397Z,41.40
2023-03-29T13:47:24.571Z,40.87
2023-03-29T13:50:51.925Z,41.86
2023-03-29T13:54:42.917Z,40.27
2023-03-29T13:58:40.744Z,41.86
2023-03-29T14:01:47.748Z,43.45
2023-03-29T14:04:53.505Z,43.43
2023-03-29T14:07:57.933Z,41.41
2023-03-29T14:11:05.590Z,42.68
2023-03-29T14:14:10.786Z,44.53
2023-03-29T14:17:23.129Z,44.30
2023-03-29T14:20:26.176Z,43.88
2023-03-29T14:23:31.822Z,45.65
2023-03-29T14:26:36.186Z,43.92
2023-03-29T14:29:39.037Z,44.96
2023-03-29T14:32:41.705Z,45.38
2023-03-29T14:35:47.436Z,46.72
2023-03-29T14:39:09.716Z,45.43
2023-03-29T14:42:21.007Z,44.66
2023-03-29T14:45:23.948Z,47.81
2023-03-29T14:48:29.050Z,48.95
2023-03-29T14:51:31.826Z,48.52
2023-03-29T14:54:36.473Z,49.98
2023-03-29T14:58:16.533Z,50.79
2023-03-29T15:01:24.005Z,49.51
2023-03-29T15:04:35.034Z,51.38
2023-03-29T15:07:42.196Z,49.94
2023-03-29T15:10:46.677Z,49.71
2023-03-29T15:14:10.955Z,50.43
2023-03-29T15:17:50.514Z,46.04
2023-03-29T15:20:54.922Z,46.43
2023-03-29T15:24:58.102Z,48.58
2023-03-29T15:28:04.866Z,48.22
2023-03-29T15:31:16.007Z,48.47
2023-03-29T15:34:31.178Z,47.38
2023-03-29T15:37:36.227Z,45.62
2023-03-29T15:40:38.564Z,44.59
2023-03-29T15:43:43.522Z,46.76
2023-03-29T15:46:47.330Z,47.89
2023-03-29T15:49:52.169Z,46.61
2023-03-29T15:53:14.187Z,46.22
2023-03-29T15:56:23.111Z,47.41
2023-03-29T15:59:26.587Z,46.31
2023-03-29T16:02:29.533Z,45.96
2023-03-29T16:05:32.154Z,46.90
2023-03-29T16:08:34.245Z,45.08
2023-03-29T16:11:39.416Z,46.27
2023-03-29T16:14:44.389Z,47.65
2023-03-29T16:17:47.932Z,48.53
2023-03-29T16:20:53.168Z,47.27
2023-03-29T16:23:59.721Z,47.39
2023-03-29T16:27:04.248Z,47.74
2023-03-29T16:30:10.930Z,46.59
2023-03-29T16:33:17.669Z,46.52
2023-03-29T16:36:19.939Z,47.11
2023-03-29T16:39:24.891Z,47.18
2023-03-29T16:42:28.165Z,46.41
2023-03-29T16:45:31.058Z,45.86
2023-03-29T16:48:33.347Z,46.48
2023-03-29T16:51:37.566Z,46.64
2023-03-29T16:54:39.682Z,47.21
2023-03-29T16:57:42.800Z,47.76
2023-03-29T17:04:10.124Z,46.36
2023-03-29T17:07:12.596Z,45.09
2023-03-29T17:10:14.842Z,47.94
2023-03-29T17:13:17.404Z,48.50
2023-03-29T17:16:20.446Z,51.80
2023-03-29T17:19:22.924Z,57.22
2023-03-29T17:22:25.412Z,56.03
2023-03-29T17:25:31.751Z,59.73
2023-03-29T17:28:34.707Z,63.39
2023-03-29T17:31:47.042Z,65.72
2023-03-29T17:34:49.737Z,64.38
2023-03-29T17:37:53.418Z,65.12
2023-03-29T17:40:56.194Z,68.89
2023-03-29T17:43:58.510Z,69.24
2023-03-29T17:47:03.787Z,67.14
2023-03-29T17:50:08.302Z,72.76
2023-03-29T17:53:10.452Z,69.76
2023-03-29T17:56:15.448Z,70.06
2023-03-29T17:59:18.666Z,75.93
2023-03-29T18:02:25.018Z,73.84
2023-03-29T18:05:29.532Z,73.51
2023-03-29T18:08:36.125Z,74.45
2023-03-29T18:11:41.585Z,73.72
2023-03-29T18:14:47.877Z,72.44
2023-03-29T18:17:50.199Z,73.10
2023-03-29T18:20:52.903Z,73.62
2023-03-29T18:23:57.032Z,70.12
2023-03-29T18:27:00.142Z,71.89
2023-03-29T18:30:02.674Z,70.03
2023-03-29T18:33:05.361Z,67.17
2023-03-29T18:36:12.616Z,67.22
2023-03-29T18:39:20.728Z,67.40
2023-03-29T18:42:23.531Z,63.81
2023-03-29T18:45:25.893Z,63.06
2023-03-29T18:48:27.985Z,62.09
2023-03-29T18:51:31.246Z,61.08
2023-03-29T18:54:36.660Z,60.25
2023-03-29T18:57:39.302Z,60.17
2023-03-29T19:00:43.673Z,59.82
2023-03-29T19:03:46.017Z,59.07
2023-03-29T19:06:49.538Z,58.23
2023-03-29T19:09:51.618Z,58.11
2023-03-29T19:12:54.073Z,57.85
2023-03-29T19:15:59.404Z,57.00
2023-03-29T19:19:02.735Z,56.70
2023-03-29T19:22:04.930Z,57.17
2023-03-29T19:25:07.779Z,55.97
2023-03-29T19:28:10.548Z,56.37
2023-03-29T19:31:12.780Z,55.66
2023-03-29T19:34:15.805Z,55.34
2023-03-29T19:37:19.518Z,55.25
2023-03-29T19:40:23.808Z,55.08
2023-03-29T19:43:26.074Z,54.52
2023-03-29T19:46:29.381Z,54.72
2023-03-29T19:49:32.560Z,56.22
2023-03-29T19:52:35.677Z,55.42
2023-03-29T19:55:39.777Z,55.08
2023-03-29T19:58:42.176Z,56.30
2023-03-29T20:01:51.179Z,56.20
2023-03-29T20:04:55.216Z,55.88
2023-03-29T20:07:59.413Z,55.03
2023-03-29T20:11:10.604Z,56.14
2023-03-29T20:14:13.241Z,54.68
2023-03-29T20:17:16.674Z,54.57
2023-03-29T20:20:19.350Z,55.08
2023-03-29T20:23:23.942Z,55.13
2023-03-29T20:26:29.248Z,54.23
2023-03-29T20:29:33.357Z,54.58
2023-03-29T20:32:38.825Z,53.65
2023-03-29T20:35:46.925Z,54.66
2023-03-29T20:38:51.702Z,53.53
2023-03-29T20:41:54.391Z,53.15
2023-03-29T20:44:57.713Z,53.97
2023-03-29T20:48:03.042Z,52.77
2023-03-29T20:51:10.420Z,53.25
2023-03-29T20:54:12.483Z,52.86
2023-03-29T20:57:17.288Z,54.01
2023-03-29T21:00:20.863Z,53.00
2023-03-29T21:03:23.079Z,51.74
2023-03-29T21:06:25.224Z,52.60
2023-03-29T21:09:27.225Z,52.07
2023-03-29T21:12:29.669Z,51.50
2023-03-29T21:15:32.122Z,51.81
2023-03-29T21:18:37.339Z,50.88
2023-03-29T21:21:41.756Z,51.03
2023-03-29T21:24:44.029Z,50.11
2023-03-29T21:27:48.938Z,50.24
2023-03-29T21:30:53.768Z,50.61
2023-03-29T21:33:58.284Z,50.03
2023-03-29T21:37:00.631Z,50.00
2023-03-29T21:40:06.185Z,50.89
2023-03-29T21:43:08.959Z,50.59
2023-03-29T21:46:14.985Z,49.26
2023-03-29T21:49:17.433Z,50.17
2023-03-29T21:53:00.055Z,51.01
2023-03-29T21:56:02.320Z,49.99
2023-03-29T21:59:04.474Z,50.72
2023-03-29T22:02:07.005Z,49.99
2023-03-29T22:05:09.296Z,49.49
2023-03-29T22:08:11.859Z,49.20
2023-03-29T22:11:19.014Z,48.92
2023-03-29T22:14:22.175Z,50.25
2023-03-29T22:17:31.231Z,50.71
2023-03-29T22:20:34.460Z,49.13
2023-03-29T22:23:46.689Z,49.36
2023-03-29T22:26:48.788Z,50.09
2023-03-29T22:29:50.904Z,49.97
2023-03-29T22:32:53.090Z,50.30
2023-03-29T22:35:55.244Z,50.17
2023-03-29T22:39:25.152Z,50.46
2023-03-29T22:42:27.338Z,50.04
2023-03-29T22:45:29.410Z,50.45
2023-03-29T22:48:31.623Z,49.84
2023-03-29T22:51:34.720Z,49.92
2023-03-29T22:54:36.892Z,49.21
2023-03-29T22:57:41.771Z,49.96
2023-03-29T23:00:47.112Z,50.22
2023-03-29T23:03:52.149Z,50.18
2023-03-29T23:06:54.406Z,49.51
2023-03-29T23:09:56.651Z,49.47
2023-03-29T23:13:09.007Z,49.61
2023-03-29T23:16:11.247Z,50.16
2023-03-29T23:19:13.772Z,49.29
2023-03-29T23:22:16.719Z,50.24
2023-03-29T23:25:18.791Z,50.38
2023-03-29T23:28:23.859Z,50.33
2023-03-29T23:31:26.051Z,50.35
2023-03-29T23:34:28.221Z,49.57
2023-03-29T23:37:30.676Z,49.21
2023-03-29T23:40:33.517Z,49.71
2023-03-29T23:43:40.702Z,49.91
2023-03-29T23:46:43.947Z,50.00
2023-03-29T23:49:47.044Z,49.46
2023-03-29T23:52:51.779Z,49.73
2023-03-29T23:56:00.599Z,48.99
2023-03-29T23:59:03.522Z,49.56
